createdAt,value
2018-04-19T00:00:49.307Z,9.17
2018-04-19T00:01:49.321Z,9.17
2018-04-19T00:02:49.333Z,9.17
2018-04-19T00:03:49.352Z,9.17
2018-04-19T00:04:49.362Z,9.18
2018-04-19T00:05:49.376Z,9.15
2018-04-19T00:06:49.388Z,9.14
2018-04-19T00:07:49.403Z,9.18
2018-04-19T00:08:49.417Z,9.14
2018-04-19T00:09:49.430Z,9.15
2018-04-19T00:10:49.445Z,9.20
2018-04-19T00:11:49.475Z,9.15
2018-04-19T00:12:49.473Z,9.14
2018-04-19T00:13:49.485Z,9.15
2018-04-19T00:14:49.497Z,9.29
2018-04-19T00:15:49.512Z,9.20
2018-04-19T00:16:49.524Z,9.11
2018-04-19T00:17:49.542Z,9.14
2018-04-19T00:18:49.551Z,9.18
2018-04-19T00:19:49.564Z,9.10
2018-04-19T00:20:49.579Z,9.13
2018-04-19T00:21:49.592Z,9.14
2018-04-19T00:22:49.605Z,9.15
2018-04-19T00:23:49.619Z,9.20
2018-04-19T00:24:49.634Z,9.14
2018-04-19T00:25:49.646Z,9.18
2018-04-19T00:26:49.660Z,9.17
2018-04-19T00:27:49.674Z,9.21
2018-04-19T00:28:49.687Z,9.18
2018-04-19T00:29:49.700Z,9.15
2018-04-19T00:30:49.714Z,9.08
2018-04-19T00:31:49.725Z,9.13
2018-04-19T00:32:49.743Z,9.08
2018-04-19T00:33:49.754Z,9.10
2018-04-19T00:34:49.771Z,9.08
2018-04-19T00:35:49.782Z,8.98
2018-04-19T00:36:49.796Z,8.98
2018-04-19T00:37:49.810Z,8.99
2018-04-19T00:38:49.822Z,9.15
2018-04-19T00:39:49.839Z,9.15
2018-04-19T00:40:49.850Z,9.14
2018-04-19T00:41:49.863Z,9.04
2018-04-19T00:42:49.876Z,8.98
2018-04-19T00:43:49.892Z,9.10
2018-04-19T00:44:49.909Z,9.01
2018-04-19T00:45:49.918Z,8.96
2018-04-19T00:46:49.961Z,8.95
2018-04-19T00:47:49.947Z,8.99
2018-04-19T00:48:49.961Z,8.94
2018-04-19T00:49:49.971Z,8.96
2018-04-19T00:50:49.985Z,8.91
2018-04-19T00:51:50.001Z,8.95
2018-04-19T00:52:50.013Z,8.95
2018-04-19T00:53:50.023Z,8.99
2018-04-19T00:54:50.040Z,8.81
2018-04-19T00:55:50.050Z,8.86
2018-04-19T00:56:50.064Z,8.86
2018-04-19T00:57:50.077Z,8.83
2018-04-19T00:58:50.091Z,8.84
2018-04-19T00:59:50.105Z,8.83
2018-04-19T01:00:50.120Z,8.86
2018-04-19T01:01:50.131Z,8.83
2018-04-19T01:02:50.144Z,8.80
2018-04-19T01:03:50.158Z,8.87
2018-04-19T01:04:50.171Z,8.81
2018-04-19T01:05:50.185Z,8.83
2018-04-19T01:06:50.197Z,8.87
2018-04-19T01:07:50.210Z,8.87
2018-04-19T01:08:50.224Z,8.86
2018-04-19T01:09:50.237Z,8.92
2018-04-19T01:10:50.253Z,8.80
2018-04-19T01:11:50.265Z,8.77
2018-04-19T01:12:50.278Z,8.79
2018-04-19T01:13:50.296Z,8.83
2018-04-19T01:14:50.305Z,8.77
2018-04-19T01:15:50.317Z,8.81
2018-04-19T01:16:50.331Z,8.76
2018-04-19T01:17:50.344Z,8.74
2018-04-19T01:18:50.358Z,8.74
2018-04-19T01:19:50.371Z,8.80
2018-04-19T01:20:50.386Z,8.73
2018-04-19T01:21:50.397Z,8.80
2018-04-19T01:22:50.409Z,8.76
2018-04-19T01:23:50.425Z,8.65
2018-04-19T01:24:50.437Z,8.65
2018-04-19T01:25:50.451Z,8.66
2018-04-19T01:26:50.463Z,8.62
2018-04-19T01:27:50.479Z,8.58
2018-04-19T01:28:50.491Z,8.58
2018-04-19T01:29:50.502Z,8.59
2018-04-19T01:30:50.517Z,8.56
2018-04-19T01:31:50.531Z,8.58
2018-04-19T01:32:50.543Z,8.58
2018-04-19T01:33:50.555Z,8.59
2018-04-19T01:34:50.569Z,8.58
2018-04-19T01:35:50.583Z,8.65
2018-04-19T01:36:50.595Z,8.52
2018-04-19T01:37:50.608Z,8.58
2018-04-19T01:38:50.622Z,8.62
2018-04-19T01:39:50.635Z,8.53
2018-04-19T01:40:50.647Z,8.58
2018-04-19T01:41:50.661Z,8.56
2018-04-19T01:42:50.672Z,8.55
2018-04-19T01:43:50.686Z,8.53
2018-04-19T01:44:50.699Z,8.52
2018-04-19T01:45:50.712Z,8.55
2018-04-19T01:46:50.728Z,8.55
2018-04-19T01:47:50.740Z,8.55
2018-04-19T01:48:50.755Z,8.43
2018-04-19T01:49:50.765Z,8.53
2018-04-19T01:50:50.776Z,8.44
2018-04-19T01:51:50.789Z,8.48
2018-04-19T01:52:50.804Z,8.48
2018-04-19T01:53:50.814Z,8.44
2018-04-19T01:54:50.825Z,8.40
2018-04-19T01:55:50.840Z,8.44
2018-04-19T01:56:50.854Z,8.40
2018-04-19T01:57:50.864Z,8.40
2018-04-19T01:58:50.880Z,8.38
2018-04-19T01:59:50.891Z,8.40
2018-04-19T02:00:50.903Z,8.43
2018-04-19T02:01:50.923Z,8.44
2018-04-19T02:02:50.940Z,8.44
2018-04-19T02:03:50.942Z,8.47
2018-04-19T02:04:50.958Z,8.45
2018-04-19T02:05:50.968Z,8.44
2018-04-19T02:06:50.981Z,8.47
2018-04-19T02:07:50.993Z,8.43
2018-04-19T02:08:51.006Z,8.41
2018-04-19T02:09:51.019Z,8.47
2018-04-19T02:10:51.031Z,8.43
2018-04-19T02:11:51.043Z,8.40
2018-04-19T02:12:51.058Z,8.45
2018-04-19T02:13:51.068Z,8.44
2018-04-19T02:14:51.081Z,8.41
2018-04-19T02:15:51.094Z,8.43
2018-04-19T02:16:51.108Z,8.38
2018-04-19T02:17:51.120Z,8.44
2018-04-19T02:18:51.130Z,8.43
2018-04-19T02:19:51.143Z,8.44
2018-04-19T02:20:51.158Z,8.45
2018-04-19T02:21:51.170Z,8.40
2018-04-19T02:22:51.183Z,8.33
2018-04-19T02:23:51.194Z,8.29
2018-04-19T02:24:51.209Z,8.28
2018-04-19T02:25:51.219Z,8.36
2018-04-19T02:26:51.234Z,8.28
2018-04-19T02:27:51.246Z,8.28
2018-04-19T02:28:51.263Z,8.36
2018-04-19T02:29:51.271Z,8.40
2018-04-19T02:30:51.282Z,8.23
2018-04-19T02:31:51.294Z,8.34
2018-04-19T02:32:51.307Z,8.41
2018-04-19T02:33:51.320Z,8.26
2018-04-19T02:34:51.337Z,8.41
2018-04-19T02:35:51.346Z,8.28
2018-04-19T02:36:51.358Z,8.36
2018-04-19T02:37:51.371Z,8.33
2018-04-19T02:38:51.399Z,8.38
2018-04-19T02:39:51.396Z,8.34
2018-04-19T02:40:51.409Z,8.38
2018-04-19T02:41:51.422Z,8.29
2018-04-19T02:42:51.434Z,8.30
2018-04-19T02:43:51.454Z,8.37
2018-04-19T02:44:51.461Z,8.37
2018-04-19T02:45:51.471Z,8.33
2018-04-19T02:46:51.486Z,8.36
2018-04-19T02:47:51.497Z,8.33
2018-04-19T02:48:51.510Z,8.28
2018-04-19T02:49:51.523Z,8.26
2018-04-19T02:50:51.541Z,8.34
2018-04-19T02:51:51.547Z,8.29
2018-04-19T02:52:51.562Z,8.34
2018-04-19T02:53:51.572Z,8.29
2018-04-19T02:54:51.585Z,8.33
2018-04-19T02:55:51.597Z,8.34
2018-04-19T02:56:51.615Z,8.33
2018-04-19T02:57:51.620Z,8.30
2018-04-19T02:58:51.639Z,8.29
2018-04-19T02:59:51.645Z,8.23
2018-04-19T03:00:51.666Z,8.22
2018-04-19T03:01:51.672Z,8.25
2018-04-19T03:02:51.686Z,8.18
2018-04-19T03:03:51.699Z,8.11
2018-04-19T03:04:51.712Z,8.16
2018-04-19T03:05:51.725Z,8.16
2018-04-19T03:06:51.737Z,8.18
2018-04-19T03:07:51.749Z,8.12
2018-04-19T03:08:51.762Z,8.12
2018-04-19T03:09:51.776Z,8.16
2018-04-19T03:10:51.786Z,8.11
2018-04-19T03:11:51.799Z,8.11
2018-04-19T03:12:51.811Z,8.11
2018-04-19T03:13:51.823Z,8.05
2018-04-19T03:14:51.836Z,8.12
2018-04-19T03:15:51.848Z,8.18
2018-04-19T03:16:51.865Z,8.15
2018-04-19T03:17:51.875Z,8.02
2018-04-19T03:18:51.886Z,8.07
2018-04-19T03:19:51.901Z,8.00
2018-04-19T03:20:51.912Z,8.11
2018-04-19T03:21:51.925Z,8.10
2018-04-19T03:22:51.935Z,7.97
2018-04-19T03:23:51.949Z,8.00
2018-04-19T03:24:51.963Z,8.01
2018-04-19T03:25:51.973Z,8.01
2018-04-19T03:26:51.997Z,8.05
2018-04-19T03:27:51.999Z,8.00
2018-04-19T03:28:52.016Z,7.97
2018-04-19T03:29:52.031Z,7.95
2018-04-19T03:30:52.039Z,8.00
2018-04-19T03:31:52.050Z,7.97
2018-04-19T03:32:52.061Z,7.97
2018-04-19T03:33:52.075Z,8.00
2018-04-19T03:34:52.086Z,8.01
2018-04-19T03:35:52.100Z,8.01
2018-04-19T03:36:52.113Z,8.01
2018-04-19T03:37:52.122Z,8.00
2018-04-19T03:38:52.137Z,8.00
2018-04-19T03:39:52.147Z,8.00
2018-04-19T03:40:52.162Z,7.93
2018-04-19T03:41:52.172Z,7.95
2018-04-19T03:42:52.185Z,7.85
2018-04-19T03:43:52.195Z,7.90
2018-04-19T03:44:52.208Z,7.89
2018-04-19T03:45:52.219Z,7.87
2018-04-19T03:46:52.241Z,7.90
2018-04-19T03:47:52.244Z,7.92
2018-04-19T03:48:52.258Z,7.90
2018-04-19T03:49:52.269Z,7.89
2018-04-19T03:50:52.282Z,7.93
2018-04-19T03:51:52.292Z,7.92
2018-04-19T03:52:52.305Z,7.87
2018-04-19T03:53:52.320Z,7.89
2018-04-19T03:54:52.335Z,7.92
2018-04-19T03:55:52.342Z,7.75
2018-04-19T03:56:52.355Z,7.80
2018-04-19T03:57:52.366Z,7.77
2018-04-19T03:58:52.380Z,7.77
2018-04-19T03:59:52.390Z,7.77
2018-04-19T04:00:52.401Z,7.75
2018-04-19T04:01:52.415Z,7.61
2018-04-19T04:02:52.427Z,7.67
2018-04-19T04:03:52.439Z,7.60
2018-04-19T04:04:52.452Z,7.68
2018-04-19T04:05:52.464Z,7.68
2018-04-19T04:06:52.480Z,7.61
2018-04-19T04:07:52.488Z,7.67
2018-04-19T04:08:52.516Z,7.64
2018-04-19T04:09:52.510Z,7.67
2018-04-19T04:10:52.523Z,7.68
2018-04-19T04:11:52.534Z,7.64
2018-04-19T04:12:52.547Z,7.64
2018-04-19T04:13:52.559Z,7.68
2018-04-19T04:14:52.571Z,7.61
2018-04-19T04:15:52.582Z,7.60
2018-04-19T04:16:52.595Z,7.79
2018-04-19T04:17:52.611Z,7.77
2018-04-19T04:18:52.619Z,7.72
2018-04-19T04:19:52.632Z,7.71
2018-04-19T04:20:52.646Z,7.72
2018-04-19T04:21:52.655Z,7.77
2018-04-19T04:22:52.667Z,7.68
2018-04-19T04:23:52.680Z,7.79
2018-04-19T04:24:52.691Z,7.71
2018-04-19T04:25:52.703Z,7.79
2018-04-19T04:26:52.714Z,7.74
2018-04-19T04:27:52.726Z,7.61
2018-04-19T04:28:52.738Z,7.61
2018-04-19T04:29:52.749Z,7.61
2018-04-19T04:30:52.767Z,7.61
2018-04-19T04:31:52.772Z,7.64
2018-04-19T04:32:52.784Z,7.72
2018-04-19T04:33:52.797Z,7.68
2018-04-19T04:34:52.810Z,7.72
2018-04-19T04:35:52.821Z,7.71
2018-04-19T04:36:52.834Z,7.67
2018-04-19T04:37:52.843Z,7.68
2018-04-19T04:38:52.858Z,7.68
2018-04-19T04:39:52.870Z,7.60
2018-04-19T04:40:52.879Z,7.68
2018-04-19T04:41:52.890Z,7.72
2018-04-19T04:42:52.904Z,7.71
2018-04-19T04:43:52.915Z,7.61
2018-04-19T04:44:52.926Z,7.64
2018-04-19T04:45:52.939Z,7.74
2018-04-19T04:46:52.951Z,7.77
2018-04-19T04:47:53.029Z,7.77
2018-04-19T04:48:52.979Z,7.74
2018-04-19T04:49:52.985Z,7.72
2018-04-19T04:50:52.998Z,7.72
2018-04-19T04:51:53.009Z,7.69
2018-04-19T04:52:53.023Z,7.68
2018-04-19T04:53:53.033Z,7.80
2018-04-19T04:54:53.044Z,7.77
2018-04-19T04:55:53.056Z,7.77
2018-04-19T04:56:53.070Z,7.71
2018-04-19T04:57:53.079Z,7.71
2018-04-19T04:58:53.093Z,7.80
2018-04-19T04:59:53.103Z,7.68
2018-04-19T05:00:53.119Z,7.77
2018-04-19T05:01:53.127Z,7.75
2018-04-19T05:02:53.139Z,7.79
2018-04-19T05:03:53.154Z,7.74
2018-04-19T05:04:53.165Z,7.75
2018-04-19T05:05:53.177Z,7.69
2018-04-19T05:06:53.193Z,7.75
2018-04-19T05:07:53.201Z,7.77
2018-04-19T05:08:53.210Z,7.77
2018-04-19T05:09:53.223Z,7.71
2018-04-19T05:10:53.235Z,7.74
2018-04-19T05:11:53.248Z,7.74
2018-04-19T05:12:53.260Z,7.74
2018-04-19T05:13:53.275Z,7.77
2018-04-19T05:14:53.283Z,7.77
2018-04-19T05:15:53.295Z,7.74
2018-04-19T05:16:53.306Z,7.74
2018-04-19T05:17:53.317Z,7.79
2018-04-19T05:18:53.331Z,7.80
2018-04-19T05:19:53.348Z,7.77
2018-04-19T05:20:53.355Z,7.77
2018-04-19T05:21:53.367Z,7.82
2018-04-19T05:22:53.378Z,7.82
2018-04-19T05:23:53.388Z,7.79
2018-04-19T05:24:53.404Z,7.77
2018-04-19T05:25:53.414Z,7.82
2018-04-19T05:26:53.425Z,7.79
2018-04-19T05:27:53.436Z,7.85
2018-04-19T05:28:53.449Z,7.79
2018-04-19T05:29:53.459Z,7.79
2018-04-19T05:30:53.472Z,7.77
2018-04-19T05:31:53.487Z,7.77
2018-04-19T05:32:53.496Z,7.72
2018-04-19T05:33:53.510Z,7.69
2018-04-19T05:34:53.519Z,7.74
2018-04-19T05:35:53.531Z,7.71
2018-04-19T05:36:53.544Z,7.75
2018-04-19T05:37:53.560Z,7.75
2018-04-19T05:38:53.568Z,7.72
2018-04-19T05:39:53.578Z,7.82
2018-04-19T05:40:53.596Z,7.83
2018-04-19T05:41:53.602Z,7.75
2018-04-19T05:42:53.615Z,7.77
2018-04-19T05:43:53.627Z,7.82
2018-04-19T05:44:53.639Z,7.77
2018-04-19T05:45:53.651Z,7.86
2018-04-19T05:46:53.662Z,7.79
2018-04-19T05:47:53.673Z,7.82
2018-04-19T05:48:53.686Z,7.85
2018-04-19T05:49:53.696Z,7.82
2018-04-19T05:50:53.708Z,7.92
2018-04-19T05:51:53.724Z,7.90
2018-04-19T05:52:53.732Z,7.87
2018-04-19T05:53:53.743Z,7.97
2018-04-19T05:54:53.754Z,7.97
2018-04-19T05:55:53.767Z,8.00
2018-04-19T05:56:53.780Z,7.93
2018-04-19T05:57:53.791Z,8.01
2018-04-19T05:58:53.800Z,8.01
2018-04-19T05:59:53.814Z,8.02
2018-04-19T06:00:53.826Z,8.07
2018-04-19T06:01:53.838Z,8.10
2018-04-19T06:02:53.854Z,8.12
2018-04-19T06:03:53.861Z,8.10
2018-04-19T06:04:53.874Z,8.16
2018-04-19T06:05:53.885Z,8.20
2018-04-19T06:06:53.896Z,8.22
2018-04-19T06:07:53.909Z,8.25
2018-04-19T06:08:53.924Z,8.33
2018-04-19T06:09:53.932Z,8.33
2018-04-19T06:10:53.944Z,8.30
2018-04-19T06:11:53.955Z,8.45
2018-04-19T06:12:53.969Z,8.40
2018-04-19T06:13:53.983Z,8.56
2018-04-19T06:14:53.994Z,8.61
2018-04-19T06:15:54.004Z,8.66
2018-04-19T06:16:54.019Z,8.63
2018-04-19T06:17:54.027Z,8.71
2018-04-19T06:18:54.040Z,8.76
2018-04-19T06:19:54.053Z,8.81
2018-04-19T06:20:54.067Z,8.71
2018-04-19T06:21:54.077Z,8.74
2018-04-19T06:22:54.091Z,8.76
2018-04-19T06:23:54.101Z,8.79
2018-04-19T06:24:54.170Z,8.84
2018-04-19T06:25:54.127Z,9.01
2018-04-19T06:26:54.141Z,9.17
2018-04-19T06:27:54.153Z,9.28
2018-04-19T06:28:54.166Z,9.43
2018-04-19T06:29:54.177Z,9.56
2018-04-19T06:30:54.189Z,9.64
2018-04-19T06:31:54.202Z,9.71
2018-04-19T06:32:54.214Z,9.74
2018-04-19T06:33:54.232Z,9.84
2018-04-19T06:34:54.238Z,9.89
2018-04-19T06:35:54.289Z,9.93
2018-04-19T06:36:54.269Z,10.08
2018-04-19T06:37:54.276Z,9.96
2018-04-19T06:38:54.290Z,10.12
2018-04-19T06:39:54.302Z,10.11
2018-04-19T06:40:54.315Z,10.02
2018-04-19T06:41:54.327Z,10.07
2018-04-19T06:42:54.340Z,10.01
2018-04-19T06:43:54.354Z,10.07
2018-04-19T06:44:54.370Z,10.01
2018-04-19T06:45:54.378Z,10.04
2018-04-19T06:46:54.390Z,10.08
2018-04-19T06:47:54.404Z,10.05
2018-04-19T06:48:54.415Z,10.18
2018-04-19T06:49:54.429Z,10.15
2018-04-19T06:50:54.442Z,10.23
2018-04-19T06:51:54.454Z,10.30
2018-04-19T06:52:54.472Z,10.34
2018-04-19T06:53:54.478Z,10.32
2018-04-19T06:54:54.491Z,10.48
2018-04-19T06:55:54.506Z,10.45
2018-04-19T06:56:54.518Z,10.45
2018-04-19T06:57:54.529Z,10.45
2018-04-19T06:58:54.542Z,10.44
2018-04-19T06:59:54.556Z,10.48
2018-04-19T07:00:54.570Z,10.59
2018-04-19T07:01:54.582Z,10.40
2018-04-19T07:02:54.594Z,10.32
2018-04-19T07:03:54.607Z,10.42
2018-04-19T07:04:54.621Z,10.48
2018-04-19T07:05:54.632Z,10.56
2018-04-19T07:06:54.645Z,10.70
2018-04-19T07:07:54.659Z,10.68
2018-04-19T07:08:54.672Z,10.74
2018-04-19T07:09:54.683Z,10.85
2018-04-19T07:10:54.695Z,10.94
2018-04-19T07:11:54.710Z,11.00
2018-04-19T07:12:54.723Z,10.94
2018-04-19T07:13:54.738Z,10.92
2018-04-19T07:14:54.751Z,10.96
2018-04-19T07:15:54.762Z,10.86
2018-04-19T07:16:54.779Z,10.82
2018-04-19T07:17:54.787Z,10.84
2018-04-19T07:18:54.802Z,11.06
2018-04-19T07:19:54.824Z,10.96
2018-04-19T07:20:54.832Z,10.96
2018-04-19T07:21:54.842Z,10.86
2018-04-19T07:22:54.853Z,11.02
2018-04-19T07:23:54.866Z,11.00
2018-04-19T07:24:54.880Z,11.17
2018-04-19T07:25:54.892Z,11.06
2018-04-19T07:26:54.906Z,11.03
2018-04-19T07:27:54.919Z,11.11
2018-04-19T07:28:54.934Z,11.18
2018-04-19T07:29:54.945Z,10.99
2018-04-19T07:30:54.957Z,11.00
2018-04-19T07:31:54.973Z,10.97
2018-04-19T07:32:54.985Z,11.04
2018-04-19T07:33:55.000Z,11.17
2018-04-19T07:34:55.012Z,11.43
2018-04-19T07:35:55.026Z,11.44
2018-04-19T07:36:55.039Z,11.57
2018-04-19T07:37:55.051Z,11.54
2018-04-19T07:38:55.065Z,11.82
2018-04-19T07:39:55.079Z,11.86
2018-04-19T07:40:55.092Z,11.88
2018-04-19T07:41:55.102Z,11.88
2018-04-19T07:42:55.118Z,11.85
2018-04-19T07:43:55.133Z,11.94
2018-04-19T07:44:55.148Z,11.88
2018-04-19T07:45:55.159Z,12.01
2018-04-19T07:46:55.172Z,11.95
2018-04-19T07:47:55.185Z,11.91
2018-04-19T07:48:55.197Z,11.86
2018-04-19T07:49:55.212Z,11.73
2018-04-19T07:50:55.225Z,11.67
2018-04-19T07:51:55.239Z,11.57
2018-04-19T07:52:55.253Z,11.58
2018-04-19T07:53:55.267Z,11.70
2018-04-19T07:54:55.280Z,11.76
2018-04-19T07:55:55.293Z,11.83
2018-04-19T07:56:55.311Z,11.85
2018-04-19T07:57:55.401Z,11.95
2018-04-19T07:58:55.338Z,12.27
2018-04-19T07:59:55.349Z,12.17
2018-04-19T08:00:55.363Z,12.14
2018-04-19T08:01:55.379Z,12.02
2018-04-19T08:02:55.394Z,12.04
2018-04-19T08:03:55.405Z,11.94
2018-04-19T08:04:55.425Z,12.02
2018-04-19T08:05:55.436Z,12.13
2018-04-19T08:06:55.449Z,12.19
2018-04-19T08:07:55.465Z,12.39
2018-04-19T08:08:55.480Z,12.59
2018-04-19T08:09:55.492Z,12.65
2018-04-19T08:10:55.503Z,12.59
2018-04-19T08:11:55.520Z,12.57
2018-04-19T08:12:55.534Z,12.49
2018-04-19T08:13:55.550Z,12.50
2018-04-19T08:14:55.560Z,12.54
2018-04-19T08:15:55.576Z,12.56
2018-04-19T08:16:55.591Z,12.53
2018-04-19T08:17:55.607Z,12.54
2018-04-19T08:18:55.649Z,12.52
2018-04-19T08:19:55.632Z,12.79
2018-04-19T08:20:55.650Z,12.92
2018-04-19T08:21:55.664Z,12.71
2018-04-19T08:22:55.677Z,12.87
2018-04-19T08:23:55.693Z,12.93
2018-04-19T08:24:55.707Z,12.74
2018-04-19T08:25:55.720Z,12.54
2018-04-19T08:26:55.737Z,12.71
2018-04-19T08:27:55.748Z,12.77
2018-04-19T08:28:55.768Z,12.82
2018-04-19T08:29:55.778Z,12.85
2018-04-19T08:30:55.791Z,12.93
2018-04-19T08:31:55.807Z,12.92
2018-04-19T08:32:55.823Z,12.96
2018-04-19T08:33:55.836Z,12.90
2018-04-19T08:34:55.850Z,13.12
2018-04-19T08:35:55.869Z,13.20
2018-04-19T08:36:55.878Z,13.10
2018-04-19T08:37:55.894Z,13.20
2018-04-19T08:38:55.910Z,13.71
2018-04-19T08:39:55.922Z,13.42
2018-04-19T08:40:55.938Z,13.20
2018-04-19T08:41:55.951Z,13.84
2018-04-19T08:42:55.968Z,14.03
2018-04-19T08:43:55.984Z,14.14
2018-04-19T08:44:56.000Z,13.81
2018-04-19T08:45:56.016Z,13.64
2018-04-19T08:46:56.027Z,13.51
2018-04-19T08:47:56.043Z,13.20
2018-04-19T08:48:56.058Z,13.30
2018-04-19T08:49:56.326Z,13.19
2018-04-19T08:50:56.085Z,13.28
2018-04-19T08:51:56.102Z,13.20
2018-04-19T08:52:56.120Z,13.28
2018-04-19T08:53:56.131Z,13.39
2018-04-19T08:54:56.149Z,13.59
2018-04-19T08:55:56.164Z,13.63
2018-04-19T08:56:56.178Z,13.36
2018-04-19T08:57:56.191Z,13.92
2018-04-19T08:58:56.206Z,13.82
2018-04-19T08:59:56.223Z,13.73
2018-04-19T09:00:56.238Z,13.97
2018-04-19T09:01:56.253Z,13.79
2018-04-19T09:02:56.268Z,13.75
2018-04-19T09:03:56.284Z,14.07
2018-04-19T09:04:56.300Z,14.20
2018-04-19T09:05:56.315Z,14.39
2018-04-19T09:06:56.329Z,14.45
2018-04-19T09:07:56.380Z,14.43
2018-04-19T09:08:56.359Z,14.35
2018-04-19T09:09:56.373Z,14.40
2018-04-19T09:10:56.391Z,14.29
2018-04-19T09:11:56.406Z,14.10
2018-04-19T09:12:56.422Z,14.10
2018-04-19T09:13:56.437Z,14.17
2018-04-19T09:14:56.453Z,14.15
2018-04-19T09:15:56.469Z,14.12
2018-04-19T09:16:56.483Z,14.51
2018-04-19T09:17:56.497Z,14.80
2018-04-19T09:18:56.522Z,14.81
2018-04-19T09:19:56.530Z,15.32
2018-04-19T09:20:56.546Z,15.01
2018-04-19T09:21:56.560Z,14.86
2018-04-19T09:22:56.577Z,14.42
2018-04-19T09:23:56.591Z,14.62
2018-04-19T09:24:56.609Z,14.86
2018-04-19T09:25:56.622Z,14.51
2018-04-19T09:26:56.640Z,14.22
2018-04-19T09:27:56.657Z,14.24
2018-04-19T09:28:56.670Z,14.17
2018-04-19T09:29:56.687Z,14.57
2018-04-19T09:30:56.701Z,14.57
2018-04-19T09:31:56.719Z,14.62
2018-04-19T09:32:56.734Z,14.98
2018-04-19T09:33:56.750Z,15.06
2018-04-19T09:34:56.766Z,15.01
2018-04-19T09:35:56.783Z,14.99
2018-04-19T09:36:56.798Z,15.09
2018-04-19T09:37:56.814Z,15.28
2018-04-19T09:38:56.831Z,15.29
2018-04-19T09:39:56.845Z,14.96
2018-04-19T09:40:56.885Z,14.95
2018-04-19T09:41:56.880Z,15.17
2018-04-19T09:42:56.895Z,15.34
2018-04-19T09:43:56.913Z,15.57
2018-04-19T09:44:56.933Z,15.16
2018-04-19T09:45:56.943Z,15.25
2018-04-19T09:46:56.961Z,15.47
2018-04-19T09:47:56.977Z,14.58
2018-04-19T09:48:56.996Z,14.68
2018-04-19T09:49:57.010Z,14.91
2018-04-19T09:50:57.027Z,15.39
2018-04-19T09:51:57.099Z,15.89
2018-04-19T09:52:57.060Z,16.08
2018-04-19T09:53:57.232Z,16.12
2018-04-19T09:54:57.092Z,16.17
2018-04-19T09:55:57.109Z,16.41
2018-04-19T09:56:57.127Z,16.34
2018-04-19T09:57:57.147Z,16.41
2018-04-19T09:58:57.160Z,16.50
2018-04-19T09:59:57.179Z,16.31
2018-04-19T10:00:57.195Z,16.66
2018-04-19T10:01:57.210Z,16.57
2018-04-19T10:02:57.226Z,16.30
2018-04-19T10:03:57.243Z,16.21
2018-04-19T10:04:57.261Z,16.31
2018-04-19T10:05:57.281Z,15.78
2018-04-19T10:06:57.293Z,15.86
2018-04-19T10:07:57.329Z,15.86
2018-04-19T10:08:57.330Z,15.83
2018-04-19T10:09:57.344Z,15.97
2018-04-19T10:10:57.365Z,16.14
2018-04-19T10:11:57.383Z,16.33
2018-04-19T10:12:57.398Z,16.07
2018-04-19T10:13:57.416Z,16.35
2018-04-19T10:14:57.432Z,16.50
2018-04-19T10:15:57.483Z,16.46
2018-04-19T10:16:57.469Z,16.24
2018-04-19T10:17:57.489Z,16.39
2018-04-19T10:18:57.504Z,16.46
2018-04-19T10:19:57.521Z,16.09
2018-04-19T10:20:57.541Z,16.17
2018-04-19T10:21:57.556Z,16.20
2018-04-19T10:22:57.575Z,16.24
2018-04-19T10:23:57.591Z,16.41
2018-04-19T10:24:57.613Z,16.34
2018-04-19T10:25:57.627Z,16.31
2018-04-19T10:26:57.650Z,16.82
2018-04-19T10:27:57.662Z,16.64
2018-04-19T10:28:57.680Z,16.58
2018-04-19T10:29:57.696Z,17.00
2018-04-19T10:30:57.716Z,17.30
2018-04-19T10:31:57.732Z,17.44
2018-04-19T10:32:57.750Z,17.33
2018-04-19T10:33:57.770Z,17.04
2018-04-19T10:34:57.794Z,16.76
2018-04-19T10:35:57.806Z,16.82
2018-04-19T10:36:57.824Z,17.06
2018-04-19T10:37:57.839Z,16.76
2018-04-19T10:38:57.858Z,16.68
2018-04-19T10:39:57.879Z,17.15
2018-04-19T10:40:57.893Z,17.33
2018-04-19T10:41:57.912Z,16.96
2018-04-19T10:42:57.931Z,17.12
2018-04-19T10:43:57.950Z,17.14
2018-04-19T10:44:57.971Z,16.58
2018-04-19T10:45:57.982Z,16.73
2018-04-19T10:46:58.003Z,16.88
2018-04-19T10:47:58.021Z,16.76
2018-04-19T10:48:58.042Z,16.35
2018-04-19T10:49:58.061Z,16.35
2018-04-19T10:50:58.078Z,16.08
2018-04-19T10:51:58.096Z,16.66
2018-04-19T10:52:58.117Z,17.04
2018-04-19T10:53:58.136Z,17.33
2018-04-19T10:54:58.149Z,17.48
2018-04-19T10:55:58.169Z,17.59
2018-04-19T10:56:58.192Z,17.25
2018-04-19T10:57:58.206Z,17.40
2018-04-19T10:58:58.228Z,17.49
2018-04-19T10:59:58.244Z,17.54
2018-04-19T11:00:58.306Z,17.56
2018-04-19T11:01:58.280Z,17.71
2018-04-19T11:02:58.300Z,17.63
2018-04-19T11:03:58.319Z,17.71
2018-04-19T11:04:58.344Z,17.54
2018-04-19T11:05:58.356Z,18.05
2018-04-19T11:06:58.379Z,18.10
2018-04-19T11:07:58.396Z,17.78
2018-04-19T11:08:58.412Z,17.89
2018-04-19T11:09:58.430Z,18.02
2018-04-19T11:10:58.450Z,17.48
2018-04-19T11:11:58.472Z,17.93
2018-04-19T11:12:58.489Z,18.07
2018-04-19T11:13:58.507Z,17.86
2018-04-19T11:14:58.527Z,17.56
2018-04-19T11:15:58.564Z,17.46
2018-04-19T11:16:58.566Z,17.11
2018-04-19T11:17:58.587Z,16.83
2018-04-19T11:18:58.603Z,16.94
2018-04-19T11:19:58.621Z,16.31
2018-04-19T11:20:58.647Z,16.66
2018-04-19T11:21:58.659Z,16.78
2018-04-19T11:22:58.680Z,16.86
2018-04-19T11:23:58.698Z,17.00
2018-04-19T11:24:58.718Z,16.82
2018-04-19T11:25:58.735Z,16.97
2018-04-19T11:26:58.755Z,17.64
2018-04-19T11:27:58.774Z,18.29
2018-04-19T11:28:58.792Z,18.15
2018-04-19T11:29:58.811Z,17.87
2018-04-19T11:30:58.848Z,17.56
2018-04-19T11:31:58.849Z,17.89
2018-04-19T11:32:58.870Z,18.39
2018-04-19T11:33:58.894Z,18.36
2018-04-19T11:34:58.909Z,18.15
2018-04-19T11:35:58.930Z,18.00
2018-04-19T11:36:58.949Z,18.18
2018-04-19T11:37:58.966Z,18.12
2018-04-19T11:38:58.989Z,18.20
2018-04-19T11:39:59.005Z,18.07
2018-04-19T11:40:59.024Z,18.30
2018-04-19T11:41:59.045Z,18.32
2018-04-19T11:42:59.064Z,17.70
2018-04-19T11:43:59.085Z,17.52
2018-04-19T11:44:59.107Z,17.68
2018-04-19T11:45:59.122Z,17.06
2018-04-19T11:46:59.140Z,17.04
2018-04-19T11:47:59.206Z,16.66
2018-04-19T11:48:59.183Z,17.18
2018-04-19T11:49:59.201Z,17.26
2018-04-19T11:50:59.220Z,17.41
2018-04-19T11:51:59.238Z,17.56
2018-04-19T11:52:59.259Z,17.72
2018-04-19T11:53:59.279Z,17.90
2018-04-19T11:54:59.299Z,17.36
2018-04-19T11:55:59.318Z,17.23
2018-04-19T11:56:59.339Z,17.58
2018-04-19T11:57:59.356Z,17.95
2018-04-19T11:58:59.378Z,18.12
2018-04-19T11:59:59.397Z,17.87
2018-04-19T12:00:59.421Z,18.32
2018-04-19T12:01:59.436Z,17.56
2018-04-19T12:02:59.455Z,17.00
2018-04-19T12:03:59.474Z,16.97
2018-04-19T12:04:59.498Z,16.89
2018-04-19T12:05:59.514Z,17.07
2018-04-19T12:06:59.537Z,17.51
2018-04-19T12:07:59.556Z,18.02
2018-04-19T12:08:59.577Z,17.95
2018-04-19T12:09:59.595Z,17.22
2018-04-19T12:10:59.613Z,16.82
2018-04-19T12:11:59.634Z,17.22
2018-04-19T12:12:59.656Z,17.71
2018-04-19T12:13:59.673Z,18.02
2018-04-19T12:14:59.692Z,16.98
2018-04-19T12:15:59.714Z,17.28
2018-04-19T12:16:59.735Z,18.20
2018-04-19T12:17:59.755Z,17.90
2018-04-19T12:18:59.773Z,17.71
2018-04-19T12:19:59.791Z,17.79
2018-04-19T12:20:59.812Z,17.36
2018-04-19T12:21:59.829Z,17.87
2018-04-19T12:22:59.850Z,18.47
2018-04-19T12:23:59.870Z,18.87
2018-04-19T12:24:59.889Z,19.11
2018-04-19T12:25:59.909Z,18.26
2018-04-19T12:26:59.928Z,17.97
2018-04-19T12:27:59.957Z,18.42
2018-04-19T12:28:59.968Z,18.52
2018-04-19T12:29:59.993Z,18.12
2018-04-19T12:31:00.007Z,17.52
2018-04-19T12:32:00.031Z,17.79
2018-04-19T12:33:00.048Z,18.29
2018-04-19T12:34:00.068Z,18.57
2018-04-19T12:35:00.096Z,17.95
2018-04-19T12:36:00.111Z,17.99
2018-04-19T12:37:00.128Z,18.58
2018-04-19T12:38:00.148Z,18.58
2018-04-19T12:39:00.167Z,18.58
2018-04-19T12:40:00.194Z,19.02
2018-04-19T12:41:00.209Z,19.50
2018-04-19T12:42:00.228Z,19.81
2018-04-19T12:43:00.248Z,19.80
2018-04-19T12:44:00.269Z,19.25
2018-04-19T12:45:00.288Z,19.46
2018-04-19T12:46:00.311Z,19.74
2018-04-19T12:47:00.329Z,19.99
2018-04-19T12:48:00.355Z,19.86
2018-04-19T12:49:00.371Z,19.46
2018-04-19T12:50:00.391Z,19.40
2018-04-19T12:51:00.414Z,18.81
2018-04-19T12:52:00.438Z,18.72
2018-04-19T12:53:00.458Z,19.10
2018-04-19T12:54:00.476Z,18.84
2018-04-19T12:55:00.495Z,18.54
2018-04-19T12:56:00.517Z,18.67
2018-04-19T12:57:00.539Z,18.33
2018-04-19T12:58:00.558Z,18.36
2018-04-19T12:59:00.581Z,18.72
2018-04-19T13:00:00.601Z,18.14
2018-04-19T13:01:00.622Z,18.48
2018-04-19T13:02:00.654Z,18.87
2018-04-19T13:03:00.663Z,19.04
2018-04-19T13:04:00.685Z,19.02
2018-04-19T13:05:00.705Z,18.76
2018-04-19T13:06:00.727Z,19.26